Time;durP1;ratioP1;P1;durP2;ratioP2;P2;SDS_P1;SDS_P2;PMS_P1;PMS_P2;Temp;Humidity;BMP_temperature;BMP_pressure;BME280_temperature;BME280_humidity;BME280_pressure;Samples;Min_cycle;Max_cycle;Signal;HPM_P1;HPM_P2
2023/12/07 00:01:52;;;;;;;19.77;12.88;;;;;;;7.67;69.60;98950.03;5092354;28;20055;-49
2023/12/07 00:04:18;;;;;;;18.73;13.57;;;;;;;7.97;70.33;98956.16;5092317;28;20565;-50
2023/12/07 00:06:43;;;;;;;18.17;12.10;;;;;;;8.14;69.36;98969.06;5090863;28;20054;-49
2023/12/07 00:09:09;;;;;;;20.60;13.57;;;;;;;8.29;69.33;98958.63;5092151;28;20024;-50
2023/12/07 00:11:35;;;;;;;22.17;12.98;;;;;;;8.35;68.87;98956.13;5074022;28;20062;-49
2023/12/07 00:14:00;;;;;;;18.90;13.05;;;;;;;8.34;68.66;98958.91;5090775;28;20551;-49
2023/12/07 00:16:26;;;;;;;19.85;13.23;;;;;;;8.23;68.55;98956.72;5092127;28;20035;-50
2023/12/07 00:18:52;;;;;;;19.60;15.52;;;;;;;8.07;68.16;98975.97;5090764;28;20032;-49
2023/12/07 00:21:17;;;;;;;18.80;14.52;;;;;;;7.92;68.87;98973.34;5092070;28;20058;-50
2023/12/07 00:23:43;;;;;;;16.38;12.77;;;;;;;8.08;70.17;98981.03;5092011;28;20024;-49
2023/12/07 00:26:10;;;;;;;16.23;12.25;;;;;;;8.33;69.77;98975.56;5090651;28;20482;-50
2023/12/07 00:28:36;;;;;;;18.83;11.25;;;;;;;8.33;69.02;98972.97;5091801;28;20023;-49
2023/12/07 00:31:02;;;;;;;19.00;11.40;;;;;;;8.56;69.69;98965.91;5091940;28;20036;-49
2023/12/07 00:33:27;;;;;;;14.73;11.25;;;;;;;8.86;69.32;98967.69;5090375;28;20131;-50
2023/12/07 00:35:53;;;;;;;17.35;11.77;;;;;;;9.04;68.59;98972.56;5091842;28;20032;-50
2023/12/07 00:38:20;;;;;;;17.23;12.57;;;;;;;8.91;67.17;98976.59;5091864;28;20024;-50
2023/12/07 00:40:46;;;;;;;17.10;12.93;;;;;;;8.70;67.59;98966.09;5092060;28;20024;-49
2023/12/07 00:43:12;;;;;;;17.65;12.15;;;;;;;8.51;68.01;98973.50;5090480;28;20494;-49
2023/12/07 00:45:38;;;;;;;16.90;12.93;;;;;;;8.77;69.40;98969.59;5090417;28;20039;-50
2023/12/07 00:48:04;;;;;;;14.30;11.15;;;;;;;9.10;68.51;98970.00;5091685;28;20500;-50
2023/12/07 00:50:30;;;;;;;20.98;17.38;;;;;;;9.36;67.32;98968.69;5091811;28;20043;-50
2023/12/07 00:52:56;;;;;;;18.15;13.80;;;;;;;9.33;66.59;98962.00;5094638;28;20485;-50
2023/12/07 00:55:22;;;;;;;39.35;35.20;;;;;;;9.11;65.94;98957.72;5094784;28;20425;-50
2023/12/07 00:57:47;;;;;;;16.25;14.45;;;;;;;8.75;65.83;98959.31;5095850;28;20028;-49
2023/12/07 01:00:13;;;;;;;41.75;37.20;;;;;;;8.35;66.10;98955.28;5095755;28;20498;-50
2023/12/07 01:02:39;;;;;;;19.70;17.17;;;;;;;8.02;67.02;98958.22;5095747;28;20451;-50
2023/12/07 01:05:05;;;;;;;20.33;13.38;;;;;;;7.85;67.97;98967.19;5094382;28;20112;-49
2023/12/07 01:07:31;;;;;;;20.23;13.15;;;;;;;7.79;68.80;98972.13;5094347;28;20056;-49
2023/12/07 01:09:57;;;;;;;46.60;41.80;;;;;;;7.78;69.22;98972.31;5094223;28;20024;-50
2023/12/07 01:12:22;;;;;;;18.00;14.50;;;;;;;7.78;69.61;98978.34;5095552;28;20032;-48
2023/12/07 01:14:48;;;;;;;29.27;22.75;;;;;;;7.92;70.80;98973.34;5094249;28;20497;-48
2023/12/07 01:17:14;;;;;;;25.23;13.40;;;;;;;8.32;70.55;98971.34;5095465;28;20488;-47
2023/12/07 01:19:39;;;;;;;25.58;22.52;;;;;;;8.64;69.67;98974.66;5095440;28;20193;-48
2023/12/07 01:22:05;;;;;;;35.05;30.58;;;;;;;8.89;69.23;98970.75;5095425;28;20389;-47
2023/12/07 01:24:31;;;;;;;17.38;12.32;;;;;;;9.13;68.78;98968.81;5095330;28;20028;-48
2023/12/07 01:26:56;;;;;;;18.33;12.95;;;;;;;9.27;67.89;98967.97;5095304;28;20032;-47
2023/12/07 01:29:22;;;;;;;23.98;21.52;;;;;;;9.28;67.23;98974.84;5094149;28;20489;-48
2023/12/07 01:31:48;;;;;;;36.58;32.72;;;;;;;9.03;66.67;98968.31;5093626;28;20048;-48
2023/12/07 01:34:14;;;;;;;32.28;28.92;;;;;;;8.85;67.50;98977.34;5095209;28;20020;-47
2023/12/07 01:36:40;;;;;;;54.47;48.60;;;;;;;8.92;68.38;98974.81;5094983;28;20038;-48
2023/12/07 01:39:06;;;;;;;28.98;26.05;;;;;;;9.35;68.45;98964.44;5094070;28;20036;-48
2023/12/07 01:41:32;;;;;;;35.40;30.25;;;;;;;9.63;67.32;98961.91;5093691;28;20043;-48
2023/12/07 01:43:58;;;;;;;65.35;59.03;;;;;;;9.74;66.94;98981.56;5094945;28;20024;-48
2023/12/07 01:46:24;;;;;;;20.98;15.77;;;;;;;9.89;66.42;98977.06;5093606;28;20028;-48
2023/12/07 01:48:49;;;;;;;24.42;19.85;;;;;;;9.98;65.90;98968.06;5094866;28;20031;-48
2023/12/07 01:51:18;;;;;;;34.75;31.17;;;;;;;10.05;65.41;98968.09;5094838;28;20027;-48
2023/12/07 01:53:43;;;;;;;20.33;15.95;;;;;;;9.79;64.79;98977.38;5094726;28;20039;-48
2023/12/07 01:56:10;;;;;;;25.90;22.85;;;;;;;9.49;65.34;98973.25;5094838;28;20501;-48
2023/12/07 01:58:37;;;;;;;28.38;25.48;;;;;;;9.50;66.51;98967.81;5093407;28;20128;-48
2023/12/07 02:01:03;;;;;;;50.97;45.97;;;;;;;9.82;66.01;98975.38;5094290;28;20047;-48
2023/12/07 02:03:31;;;;;;;20.40;18.20;;;;;;;9.92;65.16;98971.44;5093914;28;20016;-48
2023/12/07 02:05:57;;;;;;;20.90;13.82;;;;;;;9.71;64.44;98961.75;5094563;28;20023;-48
2023/12/07 02:08:23;;;;;;;16.85;13.23;;;;;;;9.56;65.34;98967.09;5094450;28;20020;-48
2023/12/07 02:10:49;;;;;;;18.80;13.93;;;;;;;9.43;65.27;98974.00;5093119;28;20077;-48
2023/12/07 02:13:15;;;;;;;17.85;14.13;;;;;;;9.28;66.36;98964.38;5093145;28;20028;-50
2023/12/07 02:15:41;;;;;;;18.40;13.52;;;;;;;9.29;66.48;98967.78;5093310;28;20032;-49
2023/12/07 02:18:45;;;;;;;18.10;13.80;;;;;;;9.34;67.66;98965.44;5094377;28;20513;-50
2023/12/07 02:21:34;;;;;;;16.00;13.27;;;;;;;9.59;67.47;98969.31;5089108;28;20032;-50
2023/12/07 02:24:02;;;;;;;17.73;13.23;;;;;;;9.60;67.63;98967.53;5094650;28;20020;-50
2023/12/07 02:26:37;;;;;;;17.80;13.02;;;;;;;9.29;67.05;98976.47;5094447;28;20074;-50
2023/12/07 02:29:03;;;;;;;16.70;14.57;;;;;;;8.97;67.79;98973.28;5093025;28;20072;-50
2023/12/07 02:31:30;;;;;;;24.45;17.75;;;;;;;8.84;68.05;98983.59;5094314;28;20269;-49
2023/12/07 02:33:56;;;;;;;33.92;28.05;;;;;;;8.85;69.80;98968.69;5093855;28;20564;-49
2023/12/07 02:36:24;;;;;;;92.93;82.03;;;;;;;9.19;69.29;98970.69;5092613;28;20049;-50
2023/12/07 02:38:51;;;;;;;44.83;38.10;;;;;;;9.36;68.32;98969.50;5093922;28;20473;-50
2023/12/07 02:41:20;;;;;;;64.45;57.17;;;;;;;9.26;67.69;98966.38;5092572;28;20024;-49
2023/12/07 02:43:46;;;;;;;33.05;29.42;;;;;;;9.28;67.88;98964.38;5093866;28;20052;-50
2023/12/07 02:46:11;;;;;;;40.03;35.80;;;;;;;9.40;67.46;98965.50;5092450;28;20069;-50
2023/12/07 02:48:37;;;;;;;93.35;83.97;;;;;;;9.59;66.78;98969.31;5092280;28;20411;-49
2023/12/07 02:51:03;;;;;;;41.35;32.30;;;;;;;9.71;65.86;98972.25;5093697;28;20388;-50
2023/12/07 02:53:29;;;;;;;22.90;19.67;;;;;;;9.74;65.90;98964.03;5093695;28;20039;-50
2023/12/07 02:55:54;;;;;;;17.52;14.77;;;;;;;9.65;65.70;98959.91;5093613;28;20021;-48
2023/12/07 02:58:20;;;;;;;18.08;15.43;;;;;;;9.42;66.66;98959.25;5092294;28;20020;-47
2023/12/07 03:00:45;;;;;;;21.73;16.17;;;;;;;9.13;68.55;98958.34;5093492;28;20414;-48
2023/12/07 03:03:11;;;;;;;21.90;15.88;;;;;;;8.67;69.66;98956.81;5093453;28;20024;-47
2023/12/07 03:05:37;;;;;;;21.67;17.50;;;;;;;8.48;71.16;98945.06;5093370;28;20020;-48
2023/12/07 03:08:03;;;;;;;18.50;14.70;;;;;;;8.60;72.39;98946.22;5091899;28;20020;-48
2023/12/07 03:10:28;;;;;;;22.27;16.25;;;;;;;8.58;71.70;98935.13;5093312;28;20424;-48
2023/12/07 03:12:54;;;;;;;20.85;16.25;;;;;;;8.55;71.29;98938.13;5091512;28;20494;-48
2023/12/07 03:15:20;;;;;;;24.23;17.77;;;;;;;8.58;70.86;98937.75;5093164;28;20017;-47
2023/12/07 03:17:45;;;;;;;18.60;15.73;;;;;;;8.70;69.72;98935.50;5091912;28;20024;-48
2023/12/07 03:20:12;;;;;;;27.95;22.90;;;;;;;8.49;67.68;98943.25;5093167;28;20024;-48
2023/12/07 03:22:39;;;;;;;12.32;11.02;;;;;;;7.96;65.56;98948.47;5091777;28;20379;-47
2023/12/07 03:25:05;;;;;;;17.73;11.77;;;;;;;7.26;66.53;98949.47;5091738;28;20024;-47
2023/12/07 03:27:31;;;;;;;19.75;14.98;;;;;;;6.93;69.27;98953.06;5093025;28;20424;-47
2023/12/07 03:29:57;;;;;;;16.10;13.15;;;;;;;6.69;70.04;98953.97;5092840;28;20027;-47
2023/12/07 03:32:22;;;;;;;15.35;13.73;;;;;;;6.31;70.78;98953.75;5091339;28;20119;-48
2023/12/07 03:34:48;;;;;;;15.93;12.45;;;;;;;5.98;71.77;98953.81;5092851;28;20020;-47
2023/12/07 03:37:13;;;;;;;15.27;12.55;;;;;;;5.67;72.74;98956.22;5093071;28;20016;-48
2023/12/07 03:39:39;;;;;;;18.00;13.60;;;;;;;5.46;74.02;98963.69;5092724;28;20032;-48
2023/12/07 03:42:05;;;;;;;15.77;13.95;;;;;;;5.35;74.67;98960.41;5092705;28;20085;-47
2023/12/07 03:44:31;;;;;;;15.93;11.75;;;;;;;5.29;75.94;98963.66;5092721;28;20051;-47
2023/12/07 03:46:56;;;;;;;15.02;11.85;;;;;;;5.24;75.54;98963.31;5092602;28;20043;-47
2023/12/07 03:49:22;;;;;;;17.55;12.85;;;;;;;5.19;76.35;98966.41;5091181;28;20115;-47
2023/12/07 03:51:48;;;;;;;17.42;12.27;;;;;;;5.22;77.16;98956.66;5092546;28;20393;-47
2023/12/07 03:54:13;;;;;;;17.52;13.27;;;;;;;5.28;77.29;98951.59;5091183;28;20077;-48
2023/12/07 03:56:40;;;;;;;15.88;11.85;;;;;;;5.55;77.57;98947.09;5092423;28;20401;-47
2023/12/07 03:59:06;;;;;;;15.68;12.32;;;;;;;5.59;76.16;98940.59;5092504;28;20444;-47
2023/12/07 04:01:32;;;;;;;16.85;11.68;;;;;;;5.30;75.18;98943.66;5091074;28;20555;-48
2023/12/07 04:03:58;;;;;;;16.65;10.82;;;;;;;4.97;76.74;98939.19;5092364;28;20034;-47
2023/12/07 04:06:24;;;;;;;15.52;11.38;;;;;;;4.68;77.76;98949.94;5092339;28;20095;-47
2023/12/07 04:08:51;;;;;;;17.15;12.60;;;;;;;4.50;79.61;98957.81;5090853;28;20069;-47
2023/12/07 04:11:17;;;;;;;17.13;11.48;;;;;;;5.02;81.21;98971.72;5091067;28;20032;-47
2023/12/07 04:13:43;;;;;;;25.48;20.38;;;;;;;5.40;80.59;98965.94;5092272;28;20024;-47
2023/12/07 04:16:10;;;;;;;17.92;14.98;;;;;;;6.12;80.01;98972.38;5092149;28;20398;-47
2023/12/07 04:18:36;;;;;;;19.38;12.30;;;;;;;6.55;77.58;98978.16;5092124;28;20043;-49
2023/12/07 04:21:02;;;;;;;15.50;12.20;;;;;;;6.47;75.86;98976.38;5092094;28;20069;-50
2023/12/07 04:23:28;;;;;;;15.73;12.43;;;;;;;6.43;75.86;98982.91;5092043;28;20058;-49
2023/12/07 04:25:54;;;;;;;15.80;11.68;;;;;;;6.34;74.97;98976.91;5091250;28;20024;-50
2023/12/07 04:28:20;;;;;;;29.63;25.10;;;;;;;6.05;73.97;98987.03;5090631;28;20535;-49
2023/12/07 04:30:45;;;;;;;19.50;16.35;;;;;;;5.78;74.19;98987.16;5090658;28;20406;-49
2023/12/07 04:33:11;;;;;;;17.17;11.93;;;;;;;5.44;74.84;98983.84;5091681;28;20534;-49
2023/12/07 04:35:37;;;;;;;20.52;12.07;;;;;;;5.05;75.80;98976.56;5091943;28;20056;-49
2023/12/07 04:38:02;;;;;;;16.45;11.82;;;;;;;4.99;77.42;98978.06;5091880;28;20115;-49
2023/12/07 04:40:28;;;;;;;14.82;11.43;;;;;;;5.02;77.10;98982.91;5092028;28;20016;-49
2023/12/07 04:42:54;;;;;;;13.02;9.65;;;;;;;4.90;76.43;98981.56;5091843;28;20032;-49
2023/12/07 04:45:19;;;;;;;14.38;10.02;;;;;;;4.88;77.49;98968.72;5090504;28;20394;-49
2023/12/07 04:47:45;;;;;;;14.32;9.30;;;;;;;5.01;78.82;98963.09;5091698;28;20043;-49
2023/12/07 04:50:11;;;;;;;14.05;10.15;;;;;;;5.61;79.08;98962.06;5091768;28;20043;-50
2023/12/07 04:52:37;;;;;;;14.95;11.75;;;;;;;6.17;78.76;98962.25;5091791;28;20067;-49
2023/12/07 04:55:03;;;;;;;14.77;11.20;;;;;;;6.67;77.12;98968.19;5091731;28;20046;-50
2023/12/07 04:57:29;;;;;;;13.48;10.70;;;;;;;6.70;73.81;98958.22;5091773;28;20020;-49
2023/12/07 04:59:55;;;;;;;14.18;10.27;;;;;;;6.49;73.13;98965.78;5073579;28;20123;-49
2023/12/07 05:02:21;;;;;;;14.95;11.18;;;;;;;6.28;73.38;98963.69;5091690;28;20024;-49
2023/12/07 05:04:47;;;;;;;14.57;11.98;;;;;;;6.17;72.85;98967.47;5091681;28;20089;-49
2023/12/07 05:07:13;;;;;;;17.33;15.45;;;;;;;5.87;73.18;98972.31;5091516;28;20039;-49
2023/12/07 05:09:39;;;;;;;16.95;12.15;;;;;;;5.61;73.70;98972.47;5090504;28;20024;-49
2023/12/07 05:12:05;;;;;;;16.73;13.30;;;;;;;5.49;73.74;98976.38;5091642;28;20554;-49
2023/12/07 05:14:32;;;;;;;14.52;12.27;;;;;;;5.44;74.96;98986.47;5091514;28;20043;-49
2023/12/07 05:16:57;;;;;;;15.98;11.88;;;;;;;5.44;75.17;98995.06;5091555;28;20140;-49
2023/12/07 05:19:24;;;;;;;15.45;11.07;;;;;;;5.50;75.14;98996.22;5091539;28;20522;-50
2023/12/07 05:21:49;;;;;;;14.27;11.77;;;;;;;5.62;75.99;98994.16;5091426;28;20405;-49
2023/12/07 05:24:15;;;;;;;13.82;11.02;;;;;;;5.66;74.66;98998.06;5090185;28;20024;-49
2023/12/07 05:26:42;;;;;;;15.48;13.13;;;;;;;5.60;74.50;98995.09;5090197;28;20375;-49
2023/12/07 05:29:09;;;;;;;15.98;13.25;;;;;;;5.54;74.60;98982.72;5091361;28;20468;-49
2023/12/07 05:31:36;;;;;;;15.52;12.50;;;;;;;5.45;74.65;98983.69;5091308;28;20036;-49
2023/12/07 05:34:03;;;;;;;17.15;12.48;;;;;;;5.39;75.54;98990.34;5091044;28;20052;-49
2023/12/07 05:36:29;;;;;;;19.65;13.23;;;;;;;5.53;75.42;98988.94;5091206;28;20036;-49
2023/12/07 05:38:55;;;;;;;16.35;12.25;;;;;;;5.67;74.65;98992.66;5095150;28;20031;-50
2023/12/07 05:41:21;;;;;;;17.95;12.45;;;;;;;5.59;73.59;98990.88;5095051;28;20375;-49
2023/12/07 05:43:47;;;;;;;15.65;12.63;;;;;;;5.33;73.59;98998.81;5095084;28;20061;-49
2023/12/07 05:46:12;;;;;;;15.93;12.20;;;;;;;5.17;73.71;98996.13;5093602;28;20024;-49
2023/12/07 05:48:38;;;;;;;18.20;11.85;;;;;;;4.98;75.02;98995.41;5093570;28;20017;-49
2023/12/07 05:51:04;;;;;;;18.33;12.68;;;;;;;4.85;75.54;98992.44;5093531;28;20079;-49
2023/12/07 05:53:32;;;;;;;16.83;12.20;;;;;;;4.70;76.23;98984.41;5093467;28;20030;-49
2023/12/07 05:55:59;;;;;;;19.75;13.05;;;;;;;4.60;77.27;98989.72;5095041;28;20488;-49
2023/12/07 05:58:24;;;;;;;20.60;12.70;;;;;;;4.51;77.49;99006.25;5094996;28;20549;-49
2023/12/07 06:00:50;;;;;;;18.42;12.73;;;;;;;4.47;78.52;98991.94;5094652;28;20028;-49
2023/12/07 06:03:16;;;;;;;20.90;12.73;;;;;;;4.59;78.22;98988.09;5093338;28;20024;-49
2023/12/07 06:05:42;;;;;;;18.25;12.10;;;;;;;4.49;77.96;98982.19;5094630;28;20028;-49
2023/12/07 06:08:08;;;;;;;17.88;12.60;;;;;;;4.32;78.16;98983.06;5093128;28;20501;-49
2023/12/07 06:10:34;;;;;;;17.42;11.60;;;;;;;4.26;78.68;98984.47;5094497;28;20025;-49
2023/12/07 06:13:01;;;;;;;20.98;12.27;;;;;;;4.15;79.66;98980.34;5093184;28;20135;-49
2023/12/07 06:15:27;;;;;;;19.67;13.55;;;;;;;4.02;79.84;98986.91;5094369;28;20032;-49
2023/12/07 06:17:54;;;;;;;18.02;13.13;;;;;;;3.90;80.81;98989.72;5094440;28;20085;-49
2023/12/07 06:20:20;;;;;;;18.83;13.80;;;;;;;3.88;81.06;98993.44;5094334;28;20542;-49
2023/12/07 06:22:46;;;;;;;19.73;13.90;;;;;;;3.93;81.86;98981.66;5092975;28;20119;-49
2023/12/07 06:25:12;;;;;;;20.90;13.82;;;;;;;3.92;80.94;98984.38;5092923;28;20055;-49
2023/12/07 06:27:38;;;;;;;24.23;14.20;;;;;;;3.88;81.61;98983.88;5094166;28;20482;-49
2023/12/07 06:30:05;;;;;;;17.02;11.57;;;;;;;4.04;81.66;98983.19;5093091;28;20020;-49
2023/12/07 06:32:32;;;;;;;20.17;12.75;;;;;;;3.96;81.26;98976.16;5092554;28;20128;-47
2023/12/07 06:34:58;;;;;;;16.48;10.70;;;;;;;3.84;81.71;98968.75;5094100;28;20020;-47
2023/12/07 06:37:24;;;;;;;22.50;14.23;;;;;;;3.77;83.20;98971.13;5094028;28;20107;-47
2023/12/07 06:39:50;;;;;;;23.52;13.45;;;;;;;4.12;83.50;98972.03;5094007;28;20031;-47
2023/12/07 06:42:16;;;;;;;24.70;15.25;;;;;;;4.18;80.88;98972.25;5093901;28;20024;-47
2023/12/07 06:44:49;;;;;;;25.08;15.48;;;;;;;4.15;81.24;98972.56;5093948;28;20016;-47
2023/12/07 06:47:15;;;;;;;22.95;15.55;;;;;;;4.35;80.88;98969.78;5093661;28;20508;-47
2023/12/07 06:49:41;;;;;;;18.48;11.80;;;;;;;4.89;82.34;98972.97;5093191;28;20391;-47
2023/12/07 06:52:07;;;;;;;16.95;13.02;;;;;;;5.52;80.96;98970.84;5093737;28;20020;-47
2023/12/07 06:54:34;;;;;;;20.98;12.65;;;;;;;5.90;79.60;98989.44;5092364;28;20038;-48
2023/12/07 06:57:00;;;;;;;18.80;12.55;;;;;;;6.09;78.39;98998.75;5093646;28;20031;-47
2023/12/07 06:59:25;;;;;;;18.20;11.75;;;;;;;6.22;77.26;99004.28;5092202;28;20028;-48
2023/12/07 07:01:51;;;;;;;16.48;13.63;;;;;;;6.18;75.33;99014.22;5092583;28;20102;-47
2023/12/07 07:04:17;;;;;;;15.70;11.57;;;;;;;6.07;74.69;99022.34;5093476;28;20035;-48
2023/12/07 07:06:43;;;;;;;17.63;14.50;;;;;;;5.96;73.14;99031.31;5093401;28;20031;-48
2023/12/07 07:09:08;;;;;;;19.08;11.68;;;;;;;5.73;73.96;99036.28;5093300;28;20515;-48
2023/12/07 07:11:34;;;;;;;62.08;55.42;;;;;;;5.98;75.34;99042.38;5093363;28;20441;-47
2023/12/07 07:14:01;;;;;;;28.42;22.75;;;;;;;6.38;74.42;99030.31;5093325;28;20103;-48
2023/12/07 07:16:26;;;;;;;19.40;15.77;;;;;;;6.59;72.63;99011.53;5093246;28;20024;-47
2023/12/07 07:18:52;;;;;;;20.45;18.17;;;;;;;6.07;71.11;98998.09;5093272;28;20031;-48
2023/12/07 07:21:19;;;;;;;26.77;23.85;;;;;;;5.33;70.97;99000.56;5091886;28;20490;-48
2023/12/07 07:23:45;;;;;;;34.20;30.67;;;;;;;4.84;72.95;98988.22;5093128;28;20560;-47
2023/12/07 07:26:16;;;;;;;165.63;148.98;;;;;;;4.35;74.04;98970.56;5093075;28;20461;-48
2023/12/07 07:28:42;;;;;;;23.08;17.73;;;;;;;4.04;75.03;98954.63;5093009;28;20028;-48
2023/12/07 07:31:08;;;;;;;23.33;15.20;;;;;;;3.98;77.33;98957.81;5093218;28;20494;-47
2023/12/07 07:33:34;;;;;;;17.20;14.80;;;;;;;3.89;76.62;98954.34;5092758;28;20414;-47
2023/12/07 07:36:00;;;;;;;19.05;13.43;;;;;;;4.04;79.98;98933.03;5092879;28;20020;-47
2023/12/07 07:38:26;;;;;;;22.08;15.20;;;;;;;4.50;78.03;98929.22;5091461;28;20027;-48
2023/12/07 07:40:52;;;;;;;20.67;14.98;;;;;;;4.28;76.58;98933.19;5092749;28;20034;-47
2023/12/07 07:43:18;;;;;;;19.98;15.02;;;;;;;4.43;78.05;98924.81;5092736;28;20039;-47
2023/12/07 07:45:45;;;;;;;24.75;15.30;;;;;;;4.64;77.36;98914.03;5091424;28;20060;-47
2023/12/07 07:48:10;;;;;;;23.80;14.60;;;;;;;4.86;76.98;98907.44;5091245;28;20498;-47
2023/12/07 07:50:36;;;;;;;15.45;9.68;;;;;;;4.71;75.03;98902.03;5092518;28;20035;-47
2023/12/07 07:53:03;;;;;;;15.27;9.05;;;;;;;4.31;75.21;98895.69;5091271;28;20078;-47
2023/12/07 07:55:31;;;;;;;14.70;8.63;;;;;;;3.84;77.02;98885.66;5092511;28;20018;-47
2023/12/07 07:57:56;;;;;;;19.23;12.57;;;;;;;3.39;79.22;98883.06;5091146;28;20494;-47
2023/12/07 08:00:25;;;;;;;12.88;8.60;;;;;;;3.13;80.80;98895.16;5092399;28;20100;-47
2023/12/07 08:02:51;;;;;;;33.05;18.27;;;;;;;2.84;82.45;98896.16;5092381;28;20027;-47
2023/12/07 08:05:18;;;;;;;24.55;14.35;;;;;;;2.89;85.28;98895.72;5092322;28;20064;-47
2023/12/07 08:07:44;;;;;;;24.90;14.13;;;;;;;3.07;86.98;98893.94;5091017;28;20066;-45
2023/12/07 08:10:09;;;;;;;55.90;36.88;;;;;;;3.26;88.78;98890.44;5092196;28;20078;-45
2023/12/07 08:12:36;;;;;;;35.42;21.10;;;;;;;3.32;87.58;98889.00;5090927;28;20127;-46
2023/12/07 08:15:02;;;;;;;24.33;14.85;;;;;;;3.07;87.46;98896.53;5090891;28;20027;-46
2023/12/07 08:17:28;;;;;;;32.40;19.85;;;;;;;2.86;88.40;98902.00;5090819;28;20031;-46
2023/12/07 08:19:53;;;;;;;43.45;32.00;;;;;;;3.10;90.94;98895.44;5092190;28;20025;-46
2023/12/07 08:22:20;;;;;;;33.78;22.42;;;;;;;3.78;94.52;98895.72;5090747;28;20428;-46
2023/12/07 08:24:46;;;;;;;26.17;17.95;;;;;;;3.89;93.41;98883.44;5092085;28;20534;-46
2023/12/07 08:27:11;;;;;;;27.88;21.48;;;;;;;3.72;93.61;98874.72;5092062;28;20028;-46
2023/12/07 08:29:37;;;;;;;24.48;15.48;;;;;;;3.91;95.53;98889.31;5091986;28;20103;-46
2023/12/07 08:32:03;;;;;;;26.63;17.20;;;;;;;3.95;94.54;98896.63;5091818;28;20020;-47
2023/12/07 08:34:29;;;;;;;21.30;14.85;;;;;;;4.21;95.83;98898.41;5091895;28;20062;-46
2023/12/07 08:36:55;;;;;;;20.08;13.65;;;;;;;4.73;97.05;98895.72;5073816;28;20239;-46
2023/12/07 08:39:21;;;;;;;24.60;14.50;;;;;;;5.28;97.32;98909.97;5090624;28;20024;-46
2023/12/07 08:41:46;;;;;;;28.17;20.05;;;;;;;5.82;96.51;98904.31;5090636;28;20038;-47
2023/12/07 08:44:12;;;;;;;29.55;19.27;;;;;;;5.76;92.96;98912.78;5090532;28;20098;-47
2023/12/07 08:46:38;;;;;;;25.90;14.05;;;;;;;5.67;93.25;98909.34;5090515;28;20024;-47
2023/12/07 08:49:04;;;;;;;20.38;14.45;;;;;;;6.15;94.32;98918.13;5090517;28;20052;-47
2023/12/07 08:51:29;;;;;;;45.20;39.63;;;;;;;6.36;93.78;98922.00;5091794;28;20059;-49
2023/12/07 08:53:55;;;;;;;36.90;26.45;;;;;;;6.39;93.92;98927.66;5090422;28;20497;-49
2023/12/07 08:56:21;;;;;;;22.60;15.32;;;;;;;6.66;93.86;98920.44;5091686;28;20027;-49
2023/12/07 08:58:47;;;;;;;28.40;13.90;;;;;;;6.98;93.21;98914.25;5091728;28;20115;-49
2023/12/07 09:01:12;;;;;;;24.33;12.98;;;;;;;7.96;92.15;98904.06;5091641;28;20100;-49
2023/12/07 09:03:38;;;;;;;17.10;13.05;;;;;;;8.85;88.64;98913.72;5091694;28;20048;-49
2023/12/07 09:06:05;;;;;;;24.85;13.88;;;;;;;9.17;84.81;98908.03;5090304;28;20398;-50
2023/12/07 09:08:31;;;;;;;18.27;13.40;;;;;;;9.59;84.17;98903.00;5091549;28;20494;-49
2023/12/07 09:10:57;;;;;;;18.80;12.60;;;;;;;10.09;81.90;98888.06;5091877;28;20016;-49
2023/12/07 09:13:22;;;;;;;18.13;14.07;;;;;;;10.25;77.48;98876.47;5094287;28;20028;-49
2023/12/07 09:15:48;;;;;;;16.75;12.98;;;;;;;9.58;75.49;98870.75;5094358;28;20475;-50
2023/12/07 09:18:14;;;;;;;18.73;13.45;;;;;;;9.08;76.38;98864.66;5094558;28;20032;-50
2023/12/07 09:20:45;;;;;;;16.55;14.18;;;;;;;8.71;75.83;98863.03;5095773;28;20398;-50
2023/12/07 09:23:15;;;;;;;16.92;12.50;;;;;;;8.25;76.01;98853.59;5095462;28;20070;-49
2023/12/07 09:25:41;;;;;;;15.25;12.63;;;;;;;7.96;73.32;98860.44;5095439;28;20027;-50
2023/12/07 09:28:07;;;;;;;16.20;11.57;;;;;;;7.82;73.98;98869.06;5094048;28;20024;-50
2023/12/07 09:30:33;;;;;;;15.40;12.48;;;;;;;8.32;72.42;98877.22;5094123;28;20021;-50
2023/12/07 09:32:59;;;;;;;27.60;21.92;;;;;;;8.92;73.10;98878.78;5095054;28;20502;-50
2023/12/07 09:35:25;;;;;;;32.35;25.73;;;;;;;9.42;70.49;98875.44;5095153;28;20176;-50
2023/12/07 09:37:51;;;;;;;15.35;12.93;;;;;;;10.39;70.50;98859.81;5095181;28;20024;-49
2023/12/07 09:40:21;;;;;;;14.80;12.93;;;;;;;11.72;66.32;98863.72;5076857;28;20035;-50
2023/12/07 09:42:48;;;;;;;21.77;12.18;;;;;;;12.70;62.03;98855.03;5095424;28;20031;-48
2023/12/07 09:45:16;;;;;;;15.00;10.93;;;;;;;13.30;58.65;98852.88;5095057;28;20482;-47
2023/12/07 09:47:43;;;;;;;15.90;11.13;;;;;;;13.99;56.29;98840.50;5095001;28;20044;-48
2023/12/07 09:50:09;;;;;;;17.60;11.20;;;;;;;14.64;55.83;98847.13;5093607;28;20603;-48
2023/12/07 09:52:36;;;;;;;13.52;10.07;;;;;;;15.19;51.76;98846.16;5093791;28;20058;-48
2023/12/07 09:55:06;;;;;;;9.88;8.82;;;;;;;15.58;52.11;98860.63;5095110;28;20026;-48
2023/12/07 09:57:33;;;;;;;17.45;8.75;;;;;;;15.64;50.94;98861.56;5094778;28;20093;-48
2023/12/07 09:59:59;;;;;;;8.82;7.20;;;;;;;16.29;48.92;98859.84;5094779;28;20028;-48
2023/12/07 10:02:26;;;;;;;15.00;8.00;;;;;;;16.28;46.96;98840.50;5093336;28;20024;-48
2023/12/07 10:05:13;;;;;;;12.27;10.18;;;;;;;16.12;48.39;98843.88;5093402;28;20107;-48
2023/12/07 10:07:43;;;;;;;11.68;9.23;;;;;;;15.84;47.29;98839.28;5094611;28;20035;-48
2023/12/07 10:10:16;;;;;;;10.93;8.55;;;;;;;15.51;44.81;98830.84;5094451;28;20070;-48
2023/12/07 10:12:47;;;;;;;17.17;10.40;;;;;;;15.37;47.39;98832.06;5093244;28;20032;-48
2023/12/07 10:15:14;;;;;;;13.07;9.63;;;;;;;15.60;45.73;98819.91;5093090;28;20440;-48
2023/12/07 10:17:59;;;;;;;15.35;9.30;;;;;;;15.89;47.12;98811.06;5093130;28;20489;-48
2023/12/07 10:20:27;;;;;;;13.88;8.93;;;;;;;16.65;44.45;98807.56;5094340;28;20099;-48
2023/12/07 10:23:09;;;;;;;13.38;8.05;;;;;;;17.12;42.96;98797.56;5091806;28;20021;-48
2023/12/07 10:25:42;;;;;;;10.07;7.90;;;;;;;16.82;38.91;98789.88;5076160;28;20028;-48
2023/12/07 10:28:11;;;;;;;11.88;7.88;;;;;;;16.12;37.46;98783.75;5092819;28;20077;-48
2023/12/07 10:30:39;;;;;;;10.40;8.00;;;;;;;15.02;38.97;98785.22;5094103;28;20028;-48
2023/12/07 10:33:07;;;;;;;9.60;6.53;;;;;;;13.75;39.49;98796.53;5093882;28;20128;-48
2023/12/07 10:35:32;;;;;;;11.77;5.70;;;;;;;13.02;40.95;98805.81;5076331;28;20031;-48
2023/12/07 10:37:58;;;;;;;9.50;4.80;;;;;;;12.59;42.24;98804.63;5092740;28;20024;-48
2023/12/07 10:40:24;;;;;;;17.15;5.63;;;;;;;12.45;42.72;98789.09;5094004;28;20025;-48
2023/12/07 10:42:56;;;;;;;13.98;4.28;;;;;;;12.27;43.21;98784.53;5092657;28;20020;-48
2023/12/07 10:45:29;;;;;;;3.47;3.05;;;;;;;11.97;41.68;98780.59;5093921;28;20030;-48
2023/12/07 10:48:08;;;;;;;9.00;3.42;;;;;;;11.80;42.99;98779.38;5093887;28;20036;-48
2023/12/07 10:50:43;;;;;;;9.60;2.50;;;;;;;11.88;42.53;98781.00;5094146;28;20059;-48
2023/12/07 10:53:16;;;;;;;4.13;3.03;;;;;;;11.52;41.85;98763.84;5093752;28;20028;-48
2023/12/07 10:55:55;;;;;;;3.60;2.50;;;;;;;11.28;41.82;98770.53;5093739;28;20154;-48
2023/12/07 10:58:25;;;;;;;6.85;3.10;;;;;;;11.08;42.35;98763.47;5093668;28;20028;-47
2023/12/07 11:00:53;;;;;;;7.13;3.50;;;;;;;11.21;42.86;98754.78;5093584;28;20020;-48
2023/12/07 11:03:20;;;;;;;5.40;2.90;;;;;;;11.05;41.91;98749.94;5093562;28;20099;-47
2023/12/07 11:05:47;;;;;;;6.13;3.55;;;;;;;10.91;42.34;98749.94;5093418;28;20099;-48
2023/12/07 11:08:19;;;;;;;5.47;2.80;;;;;;;10.82;43.11;98735.38;5091953;28;20405;-48
2023/12/07 11:11:02;;;;;;;3.45;2.75;;;;;;;10.52;42.42;98737.53;5093346;28;20091;-48
2023/12/07 11:13:31;;;;;;;5.43;2.90;;;;;;;10.18;42.96;98724.31;5093363;28;20039;-48
2023/12/07 11:15:57;;;;;;;3.40;1.70;;;;;;;9.83;42.62;98717.50;5093231;28;20020;-48
2023/12/07 11:18:27;;;;;;;4.10;2.10;;;;;;;9.52;43.92;98713.53;5091932;28;20028;-50
2023/12/07 11:20:55;;;;;;;5.80;2.17;;;;;;;9.29;44.18;98711.94;5093204;28;20020;-50
2023/12/07 11:23:21;;;;;;;3.78;2.08;;;;;;;9.13;44.58;98710.41;5092975;28;20032;-50
2023/12/07 11:25:48;;;;;;;4.45;2.20;;;;;;;9.13;45.09;98705.19;5093063;28;20095;-50